createdAt,value
2018-01-15T00:01:15.725Z,30.00
2018-01-15T00:03:44.733Z,26.97
2018-01-15T00:06:13.204Z,26.07
2018-01-15T00:08:41.854Z,27.03
2018-01-15T00:11:10.245Z,27.83
2018-01-15T00:13:38.846Z,29.60
2018-01-15T00:16:07.552Z,25.17
2018-01-15T00:18:35.922Z,31.57
2018-01-15T00:21:04.335Z,25.73
2018-01-15T00:23:33.587Z,28.50
2018-01-15T00:26:02.015Z,27.87
2018-01-15T00:28:31.213Z,29.33
2018-01-15T00:31:00.372Z,29.07
2018-01-15T00:33:28.917Z,27.43
2018-01-15T00:35:58.377Z,28.00
2018-01-15T00:38:26.749Z,27.30
2018-01-15T00:40:55.202Z,24.80
2018-01-15T00:43:23.840Z,28.03
2018-01-15T00:45:52.994Z,25.00
2018-01-15T00:48:21.396Z,24.47
2018-01-15T00:50:50.586Z,26.10
2018-01-15T00:53:18.972Z,26.80
2018-01-15T00:55:47.341Z,25.93
2018-01-15T00:58:15.771Z,29.07
2018-01-15T01:00:44.641Z,27.13
2018-01-15T01:03:13.781Z,30.23
2018-01-15T01:05:42.315Z,25.13
2018-01-15T01:08:11.489Z,25.90
2018-01-15T01:10:40.061Z,27.93
2018-01-15T01:13:08.516Z,28.23
2018-01-15T01:15:36.895Z,25.17
2018-01-15T01:18:05.256Z,30.30
2018-01-15T01:20:33.652Z,26.67
2018-01-15T01:23:02.038Z,29.13
2018-01-15T01:25:30.411Z,28.50
2018-01-15T01:27:58.786Z,26.67
2018-01-15T01:30:27.500Z,25.33
2018-01-15T01:32:55.881Z,28.20
2018-01-15T01:35:24.269Z,27.07
2018-01-15T01:37:52.639Z,30.03
2018-01-15T01:40:21.037Z,25.07
2018-01-15T01:42:50.694Z,27.10
2018-01-15T01:45:19.115Z,27.10
2018-01-15T01:47:47.731Z,26.87
2018-01-15T01:50:16.242Z,24.87
2018-01-15T01:52:44.892Z,26.70
2018-01-15T01:55:14.054Z,26.53
2018-01-15T01:57:42.443Z,24.37
2018-01-15T02:00:10.817Z,26.13
2018-01-15T02:02:39.290Z,23.07
2018-01-15T02:05:07.730Z,26.87
2018-01-15T02:07:36.116Z,27.03
2018-01-15T02:10:03.806Z,28.43
2018-01-15T02:12:32.302Z,24.50
2018-01-15T02:15:01.458Z,30.60
2018-01-15T02:17:29.902Z,24.00
2018-01-15T02:19:58.476Z,23.87
2018-01-15T02:22:26.863Z,26.93
2018-01-15T02:24:55.370Z,27.40
2018-01-15T02:27:23.418Z,28.50
2018-01-15T02:29:51.814Z,25.20
2018-01-15T02:32:20.338Z,26.93
2018-01-15T02:34:48.896Z,29.33
2018-01-15T02:37:17.380Z,25.57
2018-01-15T02:39:45.848Z,26.10
2018-01-15T02:42:14.466Z,23.33
2018-01-15T02:44:42.859Z,24.23
2018-01-15T02:47:11.390Z,23.17
2018-01-15T02:49:39.805Z,26.00
2018-01-15T02:52:08.963Z,22.20
2018-01-15T02:54:38.351Z,26.00
2018-01-15T02:57:06.718Z,29.23
2018-01-15T02:59:35.105Z,24.80
2018-01-15T03:02:03.514Z,29.97
2018-01-15T03:04:31.898Z,26.40
2018-01-15T03:07:00.411Z,26.47
2018-01-15T03:09:28.958Z,26.87
2018-01-15T03:11:57.522Z,24.50
2018-01-15T03:14:25.955Z,23.97
2018-01-15T03:16:55.127Z,22.23
2018-01-15T03:19:23.875Z,25.60
2018-01-15T03:21:52.302Z,22.50
2018-01-15T03:24:21.275Z,25.20
2018-01-15T03:26:49.643Z,22.50
2018-01-15T03:29:18.087Z,29.70
2018-01-15T03:31:46.474Z,27.13
2018-01-15T03:34:14.856Z,24.77
2018-01-15T03:36:43.248Z,25.10
2018-01-15T03:39:11.625Z,26.33
2018-01-15T03:41:40.526Z,21.60
2018-01-15T03:44:08.886Z,26.43
2018-01-15T03:46:37.498Z,26.30
2018-01-15T03:49:06.011Z,26.23
2018-01-15T03:51:35.254Z,26.83
2018-01-15T03:54:03.734Z,28.77
2018-01-15T03:56:32.137Z,26.20
2018-01-15T03:59:00.627Z,22.87
2018-01-15T04:01:29.175Z,26.70
2018-01-15T04:03:57.626Z,26.30
2018-01-15T04:06:26.602Z,27.07
2018-01-15T04:08:55.757Z,27.20
2018-01-15T04:11:24.955Z,25.07
2018-01-15T04:13:53.319Z,27.27
2018-01-15T04:16:21.831Z,26.37
2018-01-15T04:18:50.236Z,25.00
2018-01-15T04:21:19.591Z,24.37
2018-01-15T04:23:47.968Z,28.60
2018-01-15T04:26:16.693Z,27.40
2018-01-15T04:28:45.072Z,27.97
2018-01-15T04:31:13.430Z,28.40
2018-01-15T04:33:41.808Z,29.93
2018-01-15T04:36:09.971Z,31.77
2018-01-15T04:38:38.730Z,28.67
2018-01-15T04:41:07.074Z,29.23
2018-01-15T04:43:36.214Z,23.20
2018-01-15T04:46:04.602Z,26.00
2018-01-15T04:48:33.063Z,27.57
2018-01-15T04:51:02.076Z,29.80
2018-01-15T04:53:30.534Z,25.10
2018-01-15T04:55:58.929Z,26.10
2018-01-15T04:58:27.587Z,27.40
2018-01-15T05:00:56.082Z,28.10
2018-01-15T05:03:24.611Z,25.80
2018-01-15T05:05:53.149Z,26.17
2018-01-15T05:08:21.567Z,24.77
2018-01-15T05:10:49.926Z,27.83
2018-01-15T05:13:18.309Z,26.50
2018-01-15T05:15:47.186Z,28.77
2018-01-15T05:18:15.676Z,27.73
2018-01-15T05:20:44.058Z,28.60
2018-01-15T05:23:12.501Z,27.33
2018-01-15T05:25:41.171Z,26.23
2018-01-15T05:28:09.814Z,29.67
2018-01-15T05:30:38.174Z,28.17
2018-01-15T05:33:06.807Z,25.10
2018-01-15T05:35:36.229Z,26.73
2018-01-15T05:38:04.589Z,25.17
2018-01-15T05:40:33.724Z,28.10
2018-01-15T05:43:02.088Z,26.73
2018-01-15T05:45:31.183Z,26.53
2018-01-15T05:47:59.676Z,27.60
2018-01-15T05:50:28.384Z,23.93
2018-01-15T05:52:56.849Z,22.63
2018-01-15T05:55:25.249Z,28.77
2018-01-15T05:57:53.607Z,30.03
2018-01-15T06:00:21.975Z,23.87
2018-01-15T06:02:50.355Z,27.97
2018-01-15T06:05:18.875Z,23.93
2018-01-15T06:07:47.327Z,27.77
2018-01-15T06:10:15.764Z,28.60
2018-01-15T06:12:44.311Z,28.37
2018-01-15T06:15:13.471Z,27.70
2018-01-15T06:17:41.866Z,26.70
2018-01-15T06:20:10.253Z,32.20
2018-01-15T06:22:38.760Z,30.10
2018-01-15T06:25:08.061Z,29.87
2018-01-15T06:27:36.588Z,25.73
2018-01-15T06:30:04.957Z,28.77
2018-01-15T06:32:33.376Z,25.20
2018-01-15T06:35:01.741Z,30.43
2018-01-15T06:37:30.235Z,32.80
2018-01-15T06:39:58.675Z,27.77
2018-01-15T06:42:27.068Z,28.73
2018-01-15T06:44:55.597Z,30.93
2018-01-15T06:47:24.928Z,27.53
2018-01-15T06:49:53.294Z,28.73
2018-01-15T06:52:21.682Z,32.27
2018-01-15T06:54:50.096Z,29.40
2018-01-15T06:57:19.372Z,31.70
2018-01-15T06:59:47.810Z,29.90
2018-01-15T07:02:16.947Z,27.87
2018-01-15T07:04:45.329Z,31.50
2018-01-15T07:07:14.012Z,28.20
2018-01-15T07:09:42.390Z,30.10
2018-01-15T07:12:10.819Z,28.77
2018-01-15T07:14:39.996Z,32.77
2018-01-15T07:17:08.366Z,29.90
2018-01-15T07:19:36.759Z,28.30
2018-01-15T07:22:05.554Z,32.13
2018-01-15T07:24:34.682Z,26.97
2018-01-15T07:27:03.090Z,30.03
2018-01-15T07:29:31.664Z,33.93
2018-01-15T07:32:00.018Z,32.60
2018-01-15T07:34:28.384Z,30.20
2018-01-15T07:36:57.558Z,27.03
2018-01-15T07:39:25.986Z,31.00
2018-01-15T07:41:54.374Z,33.07
2018-01-15T07:44:22.732Z,32.40
2018-01-15T07:46:51.124Z,30.87
2018-01-15T07:49:19.646Z,29.47
2018-01-15T07:51:48.805Z,30.00
2018-01-15T07:54:17.337Z,30.30
2018-01-15T07:56:45.709Z,30.00
2018-01-15T07:59:14.867Z,29.00
2018-01-15T08:01:43.263Z,30.70
2018-01-15T08:04:11.666Z,33.57
2018-01-15T08:06:40.039Z,29.63
2018-01-15T08:09:09.211Z,31.50
2018-01-15T08:11:37.593Z,28.27
2018-01-15T08:14:05.975Z,34.20
2018-01-15T08:16:34.367Z,29.97
2018-01-15T08:19:02.756Z,29.77
2018-01-15T08:21:31.891Z,30.40
2018-01-15T08:24:00.510Z,26.90
2018-01-15T08:26:28.877Z,28.13
2018-01-15T08:28:57.233Z,31.30
2018-01-15T08:31:25.659Z,26.90
2018-01-15T08:33:54.243Z,30.20
2018-01-15T08:36:22.606Z,29.77
2018-01-15T08:38:50.999Z,25.43
2018-01-15T08:41:19.377Z,30.57
2018-01-15T08:43:47.875Z,26.70
2018-01-15T08:46:17.047Z,26.57
2018-01-15T08:48:45.403Z,30.80
2018-01-15T08:51:13.778Z,29.13
2018-01-15T08:53:42.801Z,30.57
2018-01-15T08:56:11.334Z,27.93
2018-01-15T08:58:39.713Z,30.40
2018-01-15T09:01:08.097Z,27.30
2018-01-15T09:03:36.638Z,25.23
2018-01-15T09:06:05.771Z,29.97
2018-01-15T09:08:34.201Z,30.83
2018-01-15T09:11:02.760Z,34.57
2018-01-15T09:13:31.208Z,32.13
2018-01-15T09:15:59.579Z,30.33
2018-01-15T09:18:28.027Z,33.20
2018-01-15T09:20:57.181Z,32.73
2018-01-15T09:23:25.570Z,28.30
2018-01-15T09:25:53.922Z,30.30
2018-01-15T09:28:22.335Z,32.20
2018-01-15T09:30:50.775Z,34.53
2018-01-15T09:33:19.148Z,31.60
2018-01-15T09:35:47.526Z,31.77
2018-01-15T09:38:16.213Z,29.23
2018-01-15T09:40:44.692Z,30.97
2018-01-15T09:43:13.151Z,26.70
2018-01-15T09:45:41.531Z,29.20
2018-01-15T09:48:09.944Z,27.20
2018-01-15T09:50:38.136Z,31.67
2018-01-15T09:53:06.543Z,28.63
2018-01-15T09:55:35.502Z,27.73
2018-01-15T09:58:04.065Z,27.50
2018-01-15T10:00:32.435Z,29.93
2018-01-15T10:03:00.801Z,33.50
2018-01-15T10:05:29.158Z,30.77
2018-01-15T10:07:58.549Z,25.17
2018-01-15T10:10:27.799Z,29.80
2018-01-15T10:12:56.189Z,25.70
2018-01-15T10:15:24.561Z,25.17
2018-01-15T10:17:53.105Z,29.00
2018-01-15T10:20:21.412Z,23.57
2018-01-15T10:22:49.833Z,25.40
2018-01-15T10:25:18.241Z,27.37
2018-01-15T10:27:46.596Z,23.10
2018-01-15T10:30:15.725Z,28.03
2018-01-15T10:32:44.170Z,22.17
2018-01-15T10:35:12.729Z,23.60
2018-01-15T10:37:41.081Z,22.20
2018-01-15T10:40:09.583Z,24.67
2018-01-15T10:42:38.143Z,27.57
2018-01-15T10:45:06.507Z,20.40
2018-01-15T10:47:35.203Z,20.83
2018-01-15T10:50:03.567Z,21.03
2018-01-15T10:52:31.915Z,24.50
2018-01-15T10:55:01.042Z,27.40
2018-01-15T10:57:31.120Z,27.30
2018-01-15T10:59:59.465Z,23.83
2018-01-15T11:02:28.107Z,25.57
2018-01-15T11:04:57.251Z,24.40
2018-01-15T11:07:25.622Z,24.50
2018-01-15T11:09:53.982Z,20.57
2018-01-15T11:12:22.358Z,21.80
2018-01-15T11:14:50.727Z,19.10
2018-01-15T11:17:19.093Z,19.77
2018-01-15T11:19:48.575Z,19.17
2018-01-15T11:22:17.735Z,40.47
2018-01-15T11:24:46.129Z,20.70
2018-01-15T11:27:14.499Z,19.47
2018-01-15T11:29:43.117Z,18.23
2018-01-15T11:32:12.555Z,20.43
2018-01-15T11:34:40.898Z,19.33
2018-01-15T11:37:10.195Z,19.07
2018-01-15T11:39:39.156Z,20.10
2018-01-15T11:42:07.523Z,19.93
2018-01-15T11:44:36.069Z,24.00
2018-01-15T11:47:04.466Z,22.90
2018-01-15T11:49:32.878Z,20.70
2018-01-15T11:52:01.427Z,22.70
2018-01-15T11:54:29.801Z,21.50
2018-01-15T11:56:58.158Z,24.00
2018-01-15T11:59:26.526Z,23.87
2018-01-15T12:01:55.894Z,21.07
2018-01-15T12:04:24.273Z,20.53
2018-01-15T12:06:53.482Z,22.87
2018-01-15T12:09:22.013Z,19.37
2018-01-15T12:11:50.656Z,20.50
2018-01-15T12:14:19.216Z,19.67
2018-01-15T12:16:47.693Z,24.97
2018-01-15T12:19:16.072Z,21.20
2018-01-15T12:21:44.579Z,19.90
2018-01-15T12:24:13.713Z,23.83
2018-01-15T12:26:42.155Z,19.37
2018-01-15T12:29:11.282Z,22.50
2018-01-15T12:31:39.665Z,23.00
2018-01-15T12:34:08.185Z,22.70
2018-01-15T12:36:36.554Z,21.57
2018-01-15T12:39:04.350Z,22.57
2018-01-15T12:41:32.718Z,19.60
2018-01-15T12:44:01.844Z,19.93
2018-01-15T12:46:30.212Z,20.30
2018-01-15T12:48:59.562Z,20.70
2018-01-15T12:51:28.034Z,19.30
2018-01-15T12:53:56.562Z,18.67
2018-01-15T12:56:25.285Z,16.90
2018-01-15T12:58:53.632Z,17.97
2018-01-15T13:01:21.997Z,15.23
2018-01-15T13:03:50.375Z,15.93
2018-01-15T13:06:19.605Z,13.80
2018-01-15T13:09:08.793Z,17.53
2018-01-15T13:11:43.314Z,13.83
2018-01-15T13:14:11.727Z,13.83
2018-01-15T13:16:40.216Z,13.87
2018-01-15T13:19:08.598Z,13.17
2018-01-15T13:21:37.751Z,13.53
2018-01-15T13:24:06.123Z,15.07
2018-01-15T13:26:34.639Z,11.67
2018-01-15T13:29:03.000Z,9.73
2018-01-15T13:31:31.386Z,12.03
2018-01-15T13:33:59.833Z,10.90
2018-01-15T13:36:28.215Z,8.63
2018-01-15T13:38:56.757Z,8.67
2018-01-15T13:41:26.095Z,9.97
2018-01-15T13:43:54.486Z,7.77
2018-01-15T13:46:23.610Z,8.60
2018-01-15T13:48:52.097Z,10.10
2018-01-15T13:51:20.839Z,9.63
2018-01-15T13:53:49.352Z,9.17
2018-01-15T13:56:17.702Z,8.77
2018-01-15T13:58:46.294Z,8.10
2018-01-15T14:01:14.665Z,7.13
2018-01-15T14:03:43.010Z,7.10
2018-01-15T14:06:11.510Z,7.20
2018-01-15T14:08:39.871Z,7.73
2018-01-15T14:11:08.227Z,7.70
2018-01-15T14:13:37.350Z,7.43
2018-01-15T14:16:05.722Z,7.10
2018-01-15T14:18:34.832Z,11.10
2018-01-15T14:21:03.244Z,7.40
2018-01-15T14:23:31.596Z,6.97
2018-01-15T14:26:00.303Z,7.17
2018-01-15T14:28:29.001Z,6.70
2018-01-15T14:30:57.351Z,7.10
2018-01-15T14:33:25.415Z,6.23
2018-01-15T14:35:53.942Z,8.20
2018-01-15T14:38:22.283Z,7.70
2018-01-15T14:40:50.702Z,8.20
2018-01-15T14:43:20.049Z,7.00
2018-01-15T14:45:48.418Z,10.60
2018-01-15T14:48:16.852Z,6.83
2018-01-15T14:50:45.206Z,6.30
2018-01-15T14:53:13.774Z,10.50
2018-01-15T14:55:42.144Z,7.90
2018-01-15T14:58:10.503Z,8.40
2018-01-15T15:00:38.869Z,7.83
2018-01-15T15:03:08.205Z,7.93
2018-01-15T15:05:36.760Z,7.83
2018-01-15T15:08:06.026Z,9.73
2018-01-15T15:10:34.393Z,9.90
2018-01-15T15:13:02.730Z,9.13
2018-01-15T15:15:31.099Z,7.30
2018-01-15T15:17:59.452Z,7.73
2018-01-15T15:20:28.655Z,9.30
2018-01-15T15:22:57.895Z,8.83
2018-01-15T15:25:26.265Z,9.80
2018-01-15T15:27:55.191Z,9.50
2018-01-15T15:30:23.566Z,8.17
2018-01-15T15:32:51.966Z,12.17
2018-01-15T15:35:20.328Z,9.90
2018-01-15T15:37:49.458Z,7.70
2018-01-15T15:40:18.587Z,7.40
2018-01-15T15:42:46.955Z,6.77
2018-01-15T15:45:15.493Z,7.30
2018-01-15T15:47:44.652Z,6.33
2018-01-15T15:50:13.077Z,6.50
2018-01-15T15:52:42.207Z,6.37
2018-01-15T15:55:10.594Z,5.50
2018-01-15T15:57:39.118Z,6.20
2018-01-15T16:00:07.527Z,6.47
2018-01-15T16:02:36.683Z,6.13
2018-01-15T16:05:05.065Z,5.90
2018-01-15T16:07:34.017Z,5.57
2018-01-15T16:10:02.365Z,5.37
2018-01-15T16:12:31.650Z,5.33
2018-01-15T16:15:01.029Z,5.70
2018-01-15T16:17:29.409Z,5.73
2018-01-15T16:19:57.804Z,6.87
2018-01-15T16:22:31.527Z,6.13
2018-01-15T16:25:00.693Z,8.50
2018-01-15T16:27:29.666Z,6.20
2018-01-15T16:29:58.135Z,5.73
2018-01-15T16:32:26.683Z,5.93
2018-01-15T16:34:55.184Z,5.30
2018-01-15T16:37:23.689Z,6.23
2018-01-15T16:39:52.088Z,6.70
2018-01-15T16:42:20.263Z,10.80
2018-01-15T16:44:48.641Z,4.47
2018-01-15T16:47:17.821Z,4.73
2018-01-15T16:49:46.203Z,3.73
2018-01-15T16:52:14.722Z,5.07
2018-01-15T16:54:43.331Z,4.20
2018-01-15T16:57:11.739Z,5.63
2018-01-15T16:59:40.188Z,4.27
2018-01-15T17:02:08.727Z,4.30
2018-01-15T17:04:37.941Z,4.00
2018-01-15T17:07:06.453Z,3.23
2018-01-15T17:09:35.072Z,4.10
2018-01-15T17:12:03.509Z,3.27
2018-01-15T17:14:32.104Z,4.07
2018-01-15T17:17:01.475Z,3.30
2018-01-15T17:19:30.707Z,3.50
2018-01-15T17:21:59.079Z,2.90
2018-01-15T17:24:27.448Z,2.87
2018-01-15T17:26:55.836Z,3.47
2018-01-15T17:29:24.193Z,3.10
2018-01-15T17:31:52.590Z,3.13
2018-01-15T17:34:21.028Z,3.00
2018-01-15T17:36:50.194Z,3.90
2018-01-15T17:39:18.668Z,2.50
2018-01-15T17:41:47.031Z,2.63
2018-01-15T17:44:16.041Z,2.70
2018-01-15T17:46:44.441Z,2.37
2018-01-15T17:49:13.591Z,2.60
2018-01-15T17:51:41.794Z,4.90
2018-01-15T17:54:11.878Z,2.40
2018-01-15T17:56:40.473Z,2.70
2018-01-15T17:59:08.859Z,4.33
2018-01-15T18:01:37.415Z,3.40
2018-01-15T18:04:05.828Z,2.70
2018-01-15T18:06:34.175Z,2.73
2018-01-15T18:09:02.549Z,2.50
2018-01-15T18:11:30.927Z,2.20
2018-01-15T18:14:00.083Z,2.20
2018-01-15T18:16:29.234Z,1.80
2018-01-15T18:18:57.569Z,2.33
2018-01-15T18:21:26.694Z,1.90
2018-01-15T18:23:55.396Z,1.60
2018-01-15T18:26:23.967Z,1.70
2018-01-15T18:28:52.328Z,1.53
2018-01-15T18:31:20.725Z,1.53
2018-01-15T18:33:49.156Z,2.83
2018-01-15T18:36:17.579Z,1.50
2018-01-15T18:38:46.192Z,2.07
2018-01-15T18:41:14.603Z,1.47
2018-01-15T18:43:44.244Z,4.23
2018-01-15T18:46:12.752Z,2.00
2018-01-15T18:48:41.014Z,1.67
2018-01-15T18:51:09.512Z,1.40
2018-01-15T18:53:38.038Z,1.23
2018-01-15T18:56:07.154Z,3.03
2018-01-15T18:58:35.539Z,1.60
2018-01-15T19:01:03.944Z,1.60
2018-01-15T19:03:32.336Z,1.60
2018-01-15T19:06:01.103Z,1.50
2018-01-15T19:08:29.499Z,1.63
2018-01-15T19:10:58.023Z,2.40
2018-01-15T19:13:27.440Z,1.50
2018-01-15T19:15:55.873Z,1.30
2018-01-15T19:18:24.782Z,1.40
2018-01-15T19:20:53.968Z,1.60
2018-01-15T19:23:23.347Z,1.53
2018-01-15T19:25:51.775Z,1.47
2018-01-15T19:28:20.064Z,1.60
2018-01-15T19:30:48.311Z,1.37
2018-01-15T19:33:17.282Z,1.30
2018-01-15T19:36:00.380Z,1.50
2018-01-15T19:38:29.436Z,1.63
2018-01-15T19:40:57.641Z,1.60
2018-01-15T19:43:29.823Z,1.23
2018-01-15T19:46:03.787Z,1.30
2018-01-15T19:48:37.728Z,1.40
2018-01-15T19:51:11.768Z,1.50
2018-01-15T19:53:45.593Z,1.73
2018-01-15T19:56:20.326Z,1.50
2018-01-15T19:58:55.047Z,1.80
2018-01-15T20:01:29.806Z,1.67
2018-01-15T20:04:03.740Z,1.70
2018-01-15T20:06:37.754Z,1.57
2018-01-15T20:09:11.616Z,1.73
2018-01-15T20:11:39.884Z,1.60
2018-01-15T20:14:08.247Z,1.93
2018-01-15T20:16:37.239Z,1.50
2018-01-15T20:19:06.404Z,1.50
2018-01-15T20:21:34.791Z,1.40
2018-01-15T20:24:03.359Z,1.43
2018-01-15T20:26:31.751Z,1.60
2018-01-15T20:29:00.138Z,1.13
2018-01-15T20:31:29.324Z,1.70
2018-01-15T20:33:57.705Z,1.57
2018-01-15T20:36:26.336Z,1.50
2018-01-15T20:38:54.899Z,1.80
2018-01-15T20:41:23.492Z,1.40
2018-01-15T20:43:52.052Z,1.73
2018-01-15T20:46:21.327Z,1.77
2018-01-15T20:48:49.784Z,1.50
2018-01-15T20:51:18.158Z,1.53
2018-01-15T20:53:46.588Z,3.80
2018-01-15T20:56:15.786Z,1.90
2018-01-15T20:58:44.970Z,1.63
2018-01-15T21:01:13.499Z,1.60
2018-01-15T21:03:41.659Z,2.80
2018-01-15T21:06:10.043Z,2.30
2018-01-15T21:08:38.431Z,1.90
2018-01-15T21:11:06.926Z,1.50
2018-01-15T21:13:35.329Z,2.07
2018-01-15T21:16:03.754Z,1.70
2018-01-15T21:18:32.189Z,1.80
2018-01-15T21:21:00.556Z,2.20
2018-01-15T21:23:28.948Z,1.87
2018-01-15T21:25:57.341Z,1.70
2018-01-15T21:28:26.509Z,2.03
2018-01-15T21:30:55.166Z,1.40
2018-01-15T21:33:23.517Z,1.80
2018-01-15T21:35:52.083Z,1.90
2018-01-15T21:38:21.392Z,2.70
2018-01-15T21:40:50.561Z,1.50
2018-01-15T21:43:19.057Z,1.30
2018-01-15T21:45:47.406Z,1.53
2018-01-15T21:48:15.813Z,1.50
2018-01-15T21:50:44.185Z,1.63
2018-01-15T21:53:12.581Z,1.47
2018-01-15T21:55:41.895Z,1.57
2018-01-15T21:58:10.284Z,2.20
2018-01-15T22:00:38.984Z,1.90
2018-01-15T22:03:07.362Z,2.63
2018-01-15T22:05:35.861Z,3.23
2018-01-15T22:08:04.934Z,2.93
2018-01-15T22:10:33.313Z,2.43
2018-01-15T22:13:02.093Z,2.40
2018-01-15T22:15:30.471Z,3.50
2018-01-15T22:17:58.860Z,3.07
2018-01-15T22:20:27.245Z,4.30
2018-01-15T22:22:55.627Z,4.20
2018-01-15T22:25:24.004Z,4.57
2018-01-15T22:27:52.374Z,3.23
2018-01-15T22:30:20.729Z,3.27
2018-01-15T22:32:49.163Z,3.00
2018-01-15T22:35:17.703Z,4.53
2018-01-15T22:37:46.283Z,2.80
2018-01-15T22:40:14.934Z,3.23
2018-01-15T22:42:44.124Z,3.60
2018-01-15T22:45:13.374Z,3.73
2018-01-15T22:47:41.904Z,3.70
2018-01-15T22:50:10.306Z,3.70
2018-01-15T22:52:38.791Z,4.27
2018-01-15T22:55:07.147Z,3.60
2018-01-15T22:57:36.301Z,3.57
2018-01-15T23:00:04.141Z,3.87
2018-01-15T23:02:32.494Z,4.60
2018-01-15T23:05:01.645Z,4.17
2018-01-15T23:07:30.157Z,7.30
2018-01-15T23:09:59.302Z,6.37
2018-01-15T23:12:27.647Z,5.27
2018-01-15T23:14:56.004Z,5.90
2018-01-15T23:17:24.495Z,6.47
2018-01-15T23:19:52.858Z,5.47
2018-01-15T23:22:21.296Z,5.60
2018-01-15T23:24:49.674Z,7.60
2018-01-15T23:27:18.070Z,6.80
2018-01-15T23:29:46.442Z,7.67
2018-01-15T23:32:14.822Z,8.40
2018-01-15T23:34:43.203Z,7.40
2018-01-15T23:37:11.681Z,6.00
2018-01-15T23:39:40.049Z,6.20
2018-01-15T23:42:08.431Z,4.63
2018-01-15T23:44:36.893Z,5.47
2018-01-15T23:47:05.270Z,3.60
2018-01-15T23:49:33.652Z,3.83
2018-01-15T23:52:02.033Z,3.90
2018-01-15T23:54:33.700Z,3.43
2018-01-15T23:57:02.063Z,2.80
2018-01-15T23:59:30.590Z,2.87
